sensor_id;sensor_type;location;lat;lon;timestamp;P1;durP1;ratioP1;P2;durP2;ratioP2
45296;SDS011;31040;51.622;10.420;2023-11-19T00:01:12;0.98;;;0.80;;
45296;SDS011;31040;51.622;10.420;2023-11-19T00:03:39;1.23;;;0.90;;
45296;SDS011;31040;51.622;10.420;2023-11-19T00:06:07;1.15;;;0.85;;
45296;SDS011;31040;51.622;10.420;2023-11-19T00:08:36;0.98;;;0.70;;
45296;SDS011;31040;51.622;10.420;2023-11-19T00:11:04;0.90;;;0.75;;
45296;SDS011;31040;51.622;10.420;2023-11-19T00:13:31;1.35;;;1.08;;
45296;SDS011;31040;51.622;10.420;2023-11-19T00:15:59;0.68;;;0.68;;
45296;SDS011;31040;51.622;10.420;2023-11-19T00:18:26;1.00;;;0.90;;
45296;SDS011;31040;51.622;10.420;2023-11-19T00:20:54;1.75;;;0.60;;
45296;SDS011;31040;51.622;10.420;2023-11-19T00:23:21;0.60;;;0.60;;
45296;SDS011;31040;51.622;10.420;2023-11-19T00:25:49;1.95;;;1.08;;
45296;SDS011;31040;51.622;10.420;2023-11-19T00:28:16;0.70;;;0.70;;
45296;SDS011;31040;51.622;10.420;2023-11-19T00:30:44;0.73;;;0.65;;
45296;SDS011;31040;51.622;10.420;2023-11-19T00:33:11;0.70;;;0.70;;
45296;SDS011;31040;51.622;10.420;2023-11-19T00:35:39;1.00;;;0.90;;
45296;SDS011;31040;51.622;10.420;2023-11-19T00:38:06;0.90;;;0.90;;
45296;SDS011;31040;51.622;10.420;2023-11-19T00:40:33;0.88;;;0.82;;
45296;SDS011;31040;51.622;10.420;2023-11-19T00:43:01;1.00;;;0.90;;
45296;SDS011;31040;51.622;10.420;2023-11-19T00:45:28;1.42;;;0.90;;
45296;SDS011;31040;51.622;10.420;2023-11-19T00:47:56;1.23;;;0.90;;
45296;SDS011;31040;51.622;10.420;2023-11-19T00:50:26;0.80;;;0.80;;
45296;SDS011;31040;51.622;10.420;2023-11-19T00:52:53;1.23;;;0.95;;
45296;SDS011;31040;51.622;10.420;2023-11-19T00:55:20;1.27;;;1.00;;
45296;SDS011;31040;51.622;10.420;2023-11-19T00:57:48;1.50;;;1.33;;
45296;SDS011;31040;51.622;10.420;2023-11-19T01:00:16;1.42;;;1.10;;
45296;SDS011;31040;51.622;10.420;2023-11-19T01:02:48;1.05;;;1.00;;
45296;SDS011;31040;51.622;10.420;2023-11-19T01:05:18;1.30;;;1.20;;
45296;SDS011;31040;51.622;10.420;2023-11-19T01:07:48;1.00;;;0.90;;
45296;SDS011;31040;51.622;10.420;2023-11-19T01:10:16;3.20;;;1.30;;
45296;SDS011;31040;51.622;10.420;2023-11-19T01:12:45;1.00;;;1.00;;
45296;SDS011;31040;51.622;10.420;2023-11-19T01:15:13;1.30;;;1.20;;
45296;SDS011;31040;51.622;10.420;2023-11-19T01:17:40;3.28;;;1.15;;
45296;SDS011;31040;51.622;10.420;2023-11-19T01:20:18;1.40;;;1.10;;
45296;SDS011;31040;51.622;10.420;2023-11-19T01:22:47;1.55;;;1.00;;
45296;SDS011;31040;51.622;10.420;2023-11-19T01:25:15;1.35;;;1.25;;
45296;SDS011;31040;51.622;10.420;2023-11-19T01:27:43;1.58;;;1.05;;
45296;SDS011;31040;51.622;10.420;2023-11-19T01:30:10;0.90;;;0.80;;
45296;SDS011;31040;51.622;10.420;2023-11-19T01:32:39;1.05;;;0.95;;
45296;SDS011;31040;51.622;10.420;2023-11-19T01:35:07;0.85;;;0.85;;
45296;SDS011;31040;51.622;10.420;2023-11-19T01:37:35;1.10;;;1.00;;
45296;SDS011;31040;51.622;10.420;2023-11-19T01:40:03;1.38;;;1.10;;
45296;SDS011;31040;51.622;10.420;2023-11-19T01:42:35;1.45;;;1.30;;
45296;SDS011;31040;51.622;10.420;2023-11-19T01:45:04;1.75;;;1.50;;
45296;SDS011;31040;51.622;10.420;2023-11-19T01:47:33;1.35;;;1.25;;
45296;SDS011;31040;51.622;10.420;2023-11-19T01:50:03;1.10;;;1.00;;
45296;SDS011;31040;51.622;10.420;2023-11-19T01:52:34;1.83;;;1.40;;
45296;SDS011;31040;51.622;10.420;2023-11-19T01:55:04;1.48;;;1.38;;
45296;SDS011;31040;51.622;10.420;2023-11-19T01:57:32;1.73;;;1.63;;
45296;SDS011;31040;51.622;10.420;2023-11-19T01:59:59;1.80;;;1.70;;
45296;SDS011;31040;51.622;10.420;2023-11-19T02:02:27;2.05;;;1.77;;
45296;SDS011;31040;51.622;10.420;2023-11-19T02:04:55;3.45;;;2.00;;
45296;SDS011;31040;51.622;10.420;2023-11-19T02:07:24;1.90;;;1.80;;
45296;SDS011;31040;51.622;10.420;2023-11-19T02:09:52;2.50;;;2.08;;
45296;SDS011;31040;51.622;10.420;2023-11-19T02:12:19;2.38;;;2.17;;
45296;SDS011;31040;51.622;10.420;2023-11-19T02:14:47;2.53;;;2.33;;
45296;SDS011;31040;51.622;10.420;2023-11-19T02:17:27;3.85;;;2.00;;
45296;SDS011;31040;51.622;10.420;2023-11-19T02:19:54;2.90;;;2.08;;
45296;SDS011;31040;51.622;10.420;2023-11-19T02:22:22;1.88;;;1.77;;
45296;SDS011;31040;51.622;10.420;2023-11-19T02:24:51;2.28;;;2.08;;
45296;SDS011;31040;51.622;10.420;2023-11-19T02:29:55;2.53;;;2.33;;
45296;SDS011;31040;51.622;10.420;2023-11-19T02:32:27;3.28;;;2.97;;
45296;SDS011;31040;51.622;10.420;2023-11-19T02:34:54;3.00;;;2.72;;
45296;SDS011;31040;51.622;10.420;2023-11-19T02:37:34;3.70;;;2.92;;
45296;SDS011;31040;51.622;10.420;2023-11-19T02:40:01;3.88;;;3.17;;
45296;SDS011;31040;51.622;10.420;2023-11-19T02:42:29;3.53;;;3.13;;
45296;SDS011;31040;51.622;10.420;2023-11-19T02:44:57;5.10;;;2.70;;
45296;SDS011;31040;51.622;10.420;2023-11-19T02:47:25;4.57;;;3.58;;
45296;SDS011;31040;51.622;10.420;2023-11-19T02:49:52;3.75;;;2.65;;
45296;SDS011;31040;51.622;10.420;2023-11-19T02:52:20;2.85;;;2.40;;
45296;SDS011;31040;51.622;10.420;2023-11-19T02:54:47;3.92;;;2.40;;
45296;SDS011;31040;51.622;10.420;2023-11-19T02:57:14;3.08;;;2.45;;
45296;SDS011;31040;51.622;10.420;2023-11-19T02:59:45;2.25;;;2.05;;
45296;SDS011;31040;51.622;10.420;2023-11-19T03:02:12;2.50;;;2.28;;
45296;SDS011;31040;51.622;10.420;2023-11-19T03:04:42;2.75;;;2.47;;
45296;SDS011;31040;51.622;10.420;2023-11-19T03:07:10;2.20;;;1.92;;
45296;SDS011;31040;51.622;10.420;2023-11-19T03:09:38;2.42;;;1.88;;
45296;SDS011;31040;51.622;10.420;2023-11-19T03:12:07;2.13;;;1.80;;
45296;SDS011;31040;51.622;10.420;2023-11-19T03:14:34;2.40;;;1.90;;
45296;SDS011;31040;51.622;10.420;2023-11-19T03:17:02;2.25;;;1.75;;
45296;SDS011;31040;51.622;10.420;2023-11-19T03:19:31;2.13;;;1.63;;
45296;SDS011;31040;51.622;10.420;2023-11-19T03:21:59;2.10;;;1.67;;
45296;SDS011;31040;51.622;10.420;2023-11-19T03:24:26;2.95;;;2.10;;
45296;SDS011;31040;51.622;10.420;2023-11-19T03:26:54;3.42;;;1.80;;
45296;SDS011;31040;51.622;10.420;2023-11-19T03:29:21;1.98;;;1.70;;
45296;SDS011;31040;51.622;10.420;2023-11-19T03:31:49;2.10;;;1.70;;
45296;SDS011;31040;51.622;10.420;2023-11-19T03:34:16;2.83;;;1.58;;
45296;SDS011;31040;51.622;10.420;2023-11-19T03:36:45;5.03;;;2.33;;
45296;SDS011;31040;51.622;10.420;2023-11-19T03:39:12;2.30;;;2.00;;
45296;SDS011;31040;51.622;10.420;2023-11-19T03:41:40;4.38;;;2.30;;
45296;SDS011;31040;51.622;10.420;2023-11-19T03:44:08;2.13;;;1.70;;
45296;SDS011;31040;51.622;10.420;2023-11-19T03:46:35;2.20;;;1.70;;
45296;SDS011;31040;51.622;10.420;2023-11-19T03:49:03;1.92;;;1.73;;
45296;SDS011;31040;51.622;10.420;2023-11-19T03:51:32;2.63;;;1.83;;
45296;SDS011;31040;51.622;10.420;2023-11-19T03:54:01;2.33;;;1.60;;
45296;SDS011;31040;51.622;10.420;2023-11-19T03:56:28;2.03;;;1.50;;
45296;SDS011;31040;51.622;10.420;2023-11-19T03:58:57;3.63;;;1.67;;
45296;SDS011;31040;51.622;10.420;2023-11-19T04:01:25;2.03;;;1.83;;
45296;SDS011;31040;51.622;10.420;2023-11-19T04:03:52;3.42;;;2.13;;
45296;SDS011;31040;51.622;10.420;2023-11-19T04:06:20;2.95;;;2.17;;
45296;SDS011;31040;51.622;10.420;2023-11-19T04:08:47;3.15;;;1.83;;
45296;SDS011;31040;51.622;10.420;2023-11-19T04:11:16;2.58;;;2.00;;
45296;SDS011;31040;51.622;10.420;2023-11-19T04:13:43;2.75;;;1.88;;
45296;SDS011;31040;51.622;10.420;2023-11-19T04:16:10;2.28;;;2.08;;
45296;SDS011;31040;51.622;10.420;2023-11-19T04:18:38;2.95;;;1.98;;
45296;SDS011;31040;51.622;10.420;2023-11-19T04:21:08;1.95;;;1.77;;
45296;SDS011;31040;51.622;10.420;2023-11-19T04:23:36;2.35;;;1.75;;
45296;SDS011;31040;51.622;10.420;2023-11-19T04:26:03;2.25;;;1.80;;
45296;SDS011;31040;51.622;10.420;2023-11-19T04:28:34;3.40;;;2.58;;
45296;SDS011;31040;51.622;10.420;2023-11-19T04:31:01;1.67;;;1.55;;
45296;SDS011;31040;51.622;10.420;2023-11-19T04:33:30;2.47;;;1.75;;
45296;SDS011;31040;51.622;10.420;2023-11-19T04:35:57;1.80;;;1.70;;
45296;SDS011;31040;51.622;10.420;2023-11-19T04:38:25;1.88;;;1.75;;
45296;SDS011;31040;51.622;10.420;2023-11-19T04:40:53;2.40;;;2.00;;
45296;SDS011;31040;51.622;10.420;2023-11-19T04:43:20;3.05;;;1.85;;
45296;SDS011;31040;51.622;10.420;2023-11-19T04:45:48;2.28;;;1.80;;
45296;SDS011;31040;51.622;10.420;2023-11-19T04:48:15;1.95;;;1.73;;
45296;SDS011;31040;51.622;10.420;2023-11-19T04:50:43;4.20;;;2.17;;
45296;SDS011;31040;51.622;10.420;2023-11-19T04:53:11;2.78;;;2.00;;
45296;SDS011;31040;51.622;10.420;2023-11-19T04:55:38;2.03;;;1.80;;
45296;SDS011;31040;51.622;10.420;2023-11-19T04:58:06;2.60;;;2.20;;
45296;SDS011;31040;51.622;10.420;2023-11-19T05:00:33;3.40;;;1.95;;
45296;SDS011;31040;51.622;10.420;2023-11-19T05:03:01;3.80;;;2.50;;
45296;SDS011;31040;51.622;10.420;2023-11-19T05:05:29;3.60;;;2.00;;
45296;SDS011;31040;51.622;10.420;2023-11-19T05:07:56;4.82;;;1.77;;
45296;SDS011;31040;51.622;10.420;2023-11-19T05:10:24;2.42;;;2.22;;
45296;SDS011;31040;51.622;10.420;2023-11-19T05:12:52;2.83;;;2.00;;
45296;SDS011;31040;51.622;10.420;2023-11-19T05:15:19;2.60;;;1.90;;
45296;SDS011;31040;51.622;10.420;2023-11-19T05:17:46;2.88;;;2.28;;
45296;SDS011;31040;51.622;10.420;2023-11-19T05:20:14;2.20;;;1.88;;
45296;SDS011;31040;51.622;10.420;2023-11-19T05:22:42;2.17;;;1.98;;
45296;SDS011;31040;51.622;10.420;2023-11-19T05:25:09;2.78;;;2.00;;
45296;SDS011;31040;51.622;10.420;2023-11-19T05:27:37;4.57;;;2.15;;
45296;SDS011;31040;51.622;10.420;2023-11-19T05:30:05;2.38;;;1.92;;
45296;SDS011;31040;51.622;10.420;2023-11-19T05:32:37;2.60;;;2.40;;
45296;SDS011;31040;51.622;10.420;2023-11-19T05:35:05;3.88;;;3.47;;
45296;SDS011;31040;51.622;10.420;2023-11-19T05:37:32;4.13;;;3.45;;
45296;SDS011;31040;51.622;10.420;2023-11-19T05:40:01;6.50;;;4.45;;
45296;SDS011;31040;51.622;10.420;2023-11-19T05:42:38;4.30;;;3.85;;
45296;SDS011;31040;51.622;10.420;2023-11-19T05:45:06;5.85;;;4.97;;
45296;SDS011;31040;51.622;10.420;2023-11-19T05:47:34;12.18;;;10.18;;
45296;SDS011;31040;51.622;10.420;2023-11-19T05:50:01;8.95;;;8.07;;
45296;SDS011;31040;51.622;10.420;2023-11-19T05:52:30;7.07;;;6.25;;
45296;SDS011;31040;51.622;10.420;2023-11-19T05:55:00;5.57;;;4.97;;
45296;SDS011;31040;51.622;10.420;2023-11-19T05:57:31;4.95;;;4.45;;
45296;SDS011;31040;51.622;10.420;2023-11-19T06:00:12;9.80;;;8.80;;
45296;SDS011;31040;51.622;10.420;2023-11-19T06:02:42;9.13;;;8.32;;
45296;SDS011;31040;51.622;10.420;2023-11-19T06:05:09;10.90;;;9.90;;
45296;SDS011;31040;51.622;10.420;2023-11-19T06:07:37;9.45;;;8.55;;
45296;SDS011;31040;51.622;10.420;2023-11-19T06:10:05;8.80;;;7.90;;
45296;SDS011;31040;51.622;10.420;2023-11-19T06:12:33;7.97;;;7.28;;
45296;SDS011;31040;51.622;10.420;2023-11-19T06:15:04;7.55;;;6.75;;
45296;SDS011;31040;51.622;10.420;2023-11-19T06:17:32;7.40;;;6.22;;
45296;SDS011;31040;51.622;10.420;2023-11-19T06:20:00;6.07;;;3.38;;
45296;SDS011;31040;51.622;10.420;2023-11-19T06:22:27;3.85;;;3.47;;
45296;SDS011;31040;51.622;10.420;2023-11-19T06:24:55;5.70;;;4.55;;
45296;SDS011;31040;51.622;10.420;2023-11-19T06:27:22;5.68;;;4.43;;
45296;SDS011;31040;51.622;10.420;2023-11-19T06:29:50;5.60;;;5.07;;
45296;SDS011;31040;51.622;10.420;2023-11-19T06:32:17;4.85;;;4.40;;
45296;SDS011;31040;51.622;10.420;2023-11-19T06:34:44;5.50;;;4.00;;
45296;SDS011;31040;51.622;10.420;2023-11-19T06:37:12;6.20;;;3.80;;
45296;SDS011;31040;51.622;10.420;2023-11-19T06:39:39;4.38;;;3.90;;
45296;SDS011;31040;51.622;10.420;2023-11-19T06:42:07;4.68;;;4.28;;
45296;SDS011;31040;51.622;10.420;2023-11-19T06:44:34;4.35;;;3.95;;
45296;SDS011;31040;51.622;10.420;2023-11-19T06:47:02;5.03;;;4.53;;
45296;SDS011;31040;51.622;10.420;2023-11-19T06:49:29;4.13;;;3.72;;
45296;SDS011;31040;51.622;10.420;2023-11-19T06:51:57;5.53;;;5.00;;
45296;SDS011;31040;51.622;10.420;2023-11-19T06:54:24;5.57;;;4.30;;
45296;SDS011;31040;51.622;10.420;2023-11-19T06:56:51;4.10;;;3.50;;
45296;SDS011;31040;51.622;10.420;2023-11-19T06:59:19;5.75;;;3.80;;
45296;SDS011;31040;51.622;10.420;2023-11-19T07:01:46;4.18;;;3.28;;
45296;SDS011;31040;51.622;10.420;2023-11-19T07:04:14;5.03;;;4.53;;
45296;SDS011;31040;51.622;10.420;2023-11-19T07:06:41;8.02;;;7.30;;
45296;SDS011;31040;51.622;10.420;2023-11-19T07:09:09;6.70;;;5.97;;
45296;SDS011;31040;51.622;10.420;2023-11-19T07:11:39;6.70;;;6.10;;
45296;SDS011;31040;51.622;10.420;2023-11-19T07:14:07;8.55;;;7.55;;
45296;SDS011;31040;51.622;10.420;2023-11-19T07:16:35;9.35;;;8.43;;
45296;SDS011;31040;51.622;10.420;2023-11-19T07:19:04;8.95;;;7.88;;
45296;SDS011;31040;51.622;10.420;2023-11-19T07:21:31;10.80;;;9.77;;
45296;SDS011;31040;51.622;10.420;2023-11-19T07:24:00;8.85;;;8.05;;
45296;SDS011;31040;51.622;10.420;2023-11-19T07:26:28;10.73;;;9.57;;
45296;SDS011;31040;51.622;10.420;2023-11-19T07:28:55;10.93;;;9.93;;
45296;SDS011;31040;51.622;10.420;2023-11-19T07:31:23;9.65;;;8.65;;
45296;SDS011;31040;51.622;10.420;2023-11-19T07:33:50;14.90;;;12.90;;
45296;SDS011;31040;51.622;10.420;2023-11-19T07:36:18;11.55;;;9.77;;
45296;SDS011;31040;51.622;10.420;2023-11-19T07:38:45;10.02;;;7.28;;
45296;SDS011;31040;51.622;10.420;2023-11-19T07:41:14;8.80;;;7.38;;
45296;SDS011;31040;51.622;10.420;2023-11-19T07:43:44;9.25;;;8.05;;
45296;SDS011;31040;51.622;10.420;2023-11-19T07:46:13;8.77;;;7.60;;
45296;SDS011;31040;51.622;10.420;2023-11-19T07:48:41;7.80;;;6.50;;
45296;SDS011;31040;51.622;10.420;2023-11-19T07:51:10;8.63;;;7.72;;
45296;SDS011;31040;51.622;10.420;2023-11-19T07:53:38;24.75;;;16.02;;
45296;SDS011;31040;51.622;10.420;2023-11-19T07:56:07;9.02;;;7.63;;
45296;SDS011;31040;51.622;10.420;2023-11-19T07:58:35;9.75;;;4.35;;
45296;SDS011;31040;51.622;10.420;2023-11-19T08:01:03;6.68;;;4.75;;
45296;SDS011;31040;51.622;10.420;2023-11-19T08:03:30;6.18;;;4.05;;
45296;SDS011;31040;51.622;10.420;2023-11-19T08:06:01;8.52;;;4.35;;
45296;SDS011;31040;51.622;10.420;2023-11-19T08:08:29;7.13;;;4.50;;
45296;SDS011;31040;51.622;10.420;2023-11-19T08:10:59;8.07;;;4.30;;
45296;SDS011;31040;51.622;10.420;2023-11-19T08:13:26;9.55;;;3.95;;
45296;SDS011;31040;51.622;10.420;2023-11-19T08:15:54;6.00;;;3.88;;
45296;SDS011;31040;51.622;10.420;2023-11-19T08:18:21;8.27;;;3.92;;
45296;SDS011;31040;51.622;10.420;2023-11-19T08:20:49;5.00;;;3.03;;
45296;SDS011;31040;51.622;10.420;2023-11-19T08:23:20;7.70;;;3.70;;
45296;SDS011;31040;51.622;10.420;2023-11-19T08:25:47;9.23;;;3.72;;
45296;SDS011;31040;51.622;10.420;2023-11-19T08:28:14;4.88;;;2.30;;
45296;SDS011;31040;51.622;10.420;2023-11-19T08:30:42;3.72;;;2.42;;
45296;SDS011;31040;51.622;10.420;2023-11-19T08:33:10;5.90;;;3.10;;
45296;SDS011;31040;51.622;10.420;2023-11-19T08:35:38;10.48;;;3.50;;
45296;SDS011;31040;51.622;10.420;2023-11-19T08:38:05;10.18;;;3.22;;
45296;SDS011;31040;51.622;10.420;2023-11-19T08:40:33;6.35;;;3.08;;
45296;SDS011;31040;51.622;10.420;2023-11-19T08:43:00;9.07;;;3.03;;
45296;SDS011;31040;51.622;10.420;2023-11-19T08:45:28;5.13;;;3.15;;
45296;SDS011;31040;51.622;10.420;2023-11-19T08:47:55;12.10;;;2.97;;
45296;SDS011;31040;51.622;10.420;2023-11-19T08:50:23;9.00;;;2.55;;
45296;SDS011;31040;51.622;10.420;2023-11-19T08:52:50;7.85;;;3.08;;
45296;SDS011;31040;51.622;10.420;2023-11-19T08:55:18;8.18;;;2.70;;
45296;SDS011;31040;51.622;10.420;2023-11-19T08:57:45;6.63;;;2.30;;
45296;SDS011;31040;51.622;10.420;2023-11-19T09:00:13;7.45;;;3.45;;
45296;SDS011;31040;51.622;10.420;2023-11-19T09:02:44;8.80;;;2.50;;
45296;SDS011;31040;51.622;10.420;2023-11-19T09:05:11;8.13;;;2.42;;
45296;SDS011;31040;51.622;10.420;2023-11-19T09:07:39;5.88;;;2.50;;
45296;SDS011;31040;51.622;10.420;2023-11-19T09:10:07;10.32;;;2.85;;
45296;SDS011;31040;51.622;10.420;2023-11-19T09:12:35;5.85;;;2.65;;
45296;SDS011;31040;51.622;10.420;2023-11-19T09:15:02;7.82;;;3.30;;
45296;SDS011;31040;51.622;10.420;2023-11-19T09:17:30;8.07;;;3.70;;
45296;SDS011;31040;51.622;10.420;2023-11-19T09:19:57;6.78;;;3.38;;
45296;SDS011;31040;51.622;10.420;2023-11-19T09:22:25;7.53;;;3.00;;
45296;SDS011;31040;51.622;10.420;2023-11-19T09:24:52;6.40;;;2.55;;
45296;SDS011;31040;51.622;10.420;2023-11-19T09:27:20;5.05;;;2.70;;
45296;SDS011;31040;51.622;10.420;2023-11-19T09:29:47;10.35;;;3.10;;
45296;SDS011;31040;51.622;10.420;2023-11-19T09:32:16;5.75;;;2.17;;
45296;SDS011;31040;51.622;10.420;2023-11-19T09:34:44;8.15;;;2.63;;
45296;SDS011;31040;51.622;10.420;2023-11-19T09:37:13;6.40;;;2.60;;
45296;SDS011;31040;51.622;10.420;2023-11-19T09:39:43;5.85;;;2.58;;
45296;SDS011;31040;51.622;10.420;2023-11-19T09:42:11;8.30;;;3.03;;
45296;SDS011;31040;51.622;10.420;2023-11-19T09:44:39;8.30;;;3.25;;
45296;SDS011;31040;51.622;10.420;2023-11-19T09:47:07;6.00;;;3.55;;
45296;SDS011;31040;51.622;10.420;2023-11-19T09:49:35;7.68;;;3.85;;
45296;SDS011;31040;51.622;10.420;2023-11-19T09:52:03;14.02;;;5.10;;
45296;SDS011;31040;51.622;10.420;2023-11-19T09:54:30;6.38;;;2.47;;
45296;SDS011;31040;51.622;10.420;2023-11-19T09:56:59;4.07;;;2.88;;
45296;SDS011;31040;51.622;10.420;2023-11-19T09:59:30;9.38;;;2.45;;
45296;SDS011;31040;51.622;10.420;2023-11-19T10:01:57;5.13;;;2.55;;
45296;SDS011;31040;51.622;10.420;2023-11-19T10:04:26;8.15;;;3.00;;
45296;SDS011;31040;51.622;10.420;2023-11-19T10:06:57;8.20;;;2.55;;
45296;SDS011;31040;51.622;10.420;2023-11-19T10:09:24;10.68;;;3.17;;
45296;SDS011;31040;51.622;10.420;2023-11-19T10:11:51;11.18;;;4.32;;
45296;SDS011;31040;51.622;10.420;2023-11-19T10:14:20;12.73;;;3.25;;
45296;SDS011;31040;51.622;10.420;2023-11-19T10:16:50;6.40;;;2.25;;
45296;SDS011;31040;51.622;10.420;2023-11-19T10:19:21;9.13;;;3.65;;
45296;SDS011;31040;51.622;10.420;2023-11-19T10:21:48;7.18;;;2.63;;
45296;SDS011;31040;51.622;10.420;2023-11-19T10:24:16;14.85;;;3.63;;
45296;SDS011;31040;51.622;10.420;2023-11-19T10:26:46;15.32;;;3.58;;
45296;SDS011;31040;51.622;10.420;2023-11-19T10:29:13;10.00;;;2.70;;
45296;SDS011;31040;51.622;10.420;2023-11-19T10:31:41;12.35;;;3.03;;
45296;SDS011;31040;51.622;10.420;2023-11-19T10:34:25;9.77;;;3.38;;
45296;SDS011;31040;51.622;10.420;2023-11-19T10:36:53;13.95;;;3.63;;
45296;SDS011;31040;51.622;10.420;2023-11-19T10:39:20;9.35;;;3.00;;
45296;SDS011;31040;51.622;10.420;2023-11-19T10:41:50;11.02;;;3.55;;
45296;SDS011;31040;51.622;10.420;2023-11-19T10:44:32;11.55;;;3.50;;
45296;SDS011;31040;51.622;10.420;2023-11-19T10:47:03;10.38;;;2.92;;
45296;SDS011;31040;51.622;10.420;2023-11-19T10:49:32;14.10;;;3.13;;
45296;SDS011;31040;51.622;10.420;2023-11-19T10:52:01;15.60;;;3.33;;
45296;SDS011;31040;51.622;10.420;2023-11-19T10:54:30;10.40;;;2.95;;
45296;SDS011;31040;51.622;10.420;2023-11-19T10:56:58;12.15;;;3.10;;
45296;SDS011;31040;51.622;10.420;2023-11-19T10:59:31;19.60;;;3.53;;
45296;SDS011;31040;51.622;10.420;2023-11-19T11:02:00;11.60;;;2.90;;
45296;SDS011;31040;51.622;10.420;2023-11-19T11:04:30;10.68;;;3.05;;
45296;SDS011;31040;51.622;10.420;2023-11-19T11:06:58;10.30;;;2.90;;
45296;SDS011;31040;51.622;10.420;2023-11-19T11:09:27;10.23;;;3.10;;
45296;SDS011;31040;51.622;10.420;2023-11-19T11:11:55;11.82;;;2.90;;
45296;SDS011;31040;51.622;10.420;2023-11-19T11:14:23;11.35;;;4.18;;
45296;SDS011;31040;51.622;10.420;2023-11-19T11:16:51;13.18;;;3.30;;
45296;SDS011;31040;51.622;10.420;2023-11-19T11:19:20;12.90;;;3.25;;
45296;SDS011;31040;51.622;10.420;2023-11-19T11:21:49;10.55;;;3.35;;
45296;SDS011;31040;51.622;10.420;2023-11-19T11:39:36;11.43;;;3.28;;
45296;SDS011;31040;51.622;10.420;2023-11-19T11:45:00;8.45;;;2.70;;
45296;SDS011;31040;51.622;10.420;2023-11-19T11:50:11;16.52;;;3.92;;
45296;SDS011;31040;51.622;10.420;2023-11-19T11:55:33;15.45;;;3.50;;
45296;SDS011;31040;51.622;10.420;2023-11-19T11:58:01;10.65;;;3.67;;
45296;SDS011;31040;51.622;10.420;2023-11-19T12:00:32;16.58;;;4.28;;
45296;SDS011;31040;51.622;10.420;2023-11-19T12:03:00;14.45;;;3.80;;
45296;SDS011;31040;51.622;10.420;2023-11-19T12:05:28;16.13;;;4.60;;
45296;SDS011;31040;51.622;10.420;2023-11-19T12:07:57;9.10;;;3.17;;
45296;SDS011;31040;51.622;10.420;2023-11-19T12:10:25;11.07;;;3.17;;
45296;SDS011;31040;51.622;10.420;2023-11-19T12:13:01;17.85;;;3.83;;
45296;SDS011;31040;51.622;10.420;2023-11-19T12:15:28;15.02;;;4.18;;
45296;SDS011;31040;51.622;10.420;2023-11-19T12:17:57;11.75;;;3.45;;
45296;SDS011;31040;51.622;10.420;2023-11-19T12:20:25;10.75;;;3.08;;
45296;SDS011;31040;51.622;10.420;2023-11-19T12:22:55;9.32;;;2.88;;
45296;SDS011;31040;51.622;10.420;2023-11-19T12:25:23;10.55;;;3.28;;
45296;SDS011;31040;51.622;10.420;2023-11-19T12:27:50;18.60;;;4.05;;
45296;SDS011;31040;51.622;10.420;2023-11-19T12:30:23;11.85;;;3.33;;
45296;SDS011;31040;51.622;10.420;2023-11-19T12:32:52;18.85;;;4.47;;
45296;SDS011;31040;51.622;10.420;2023-11-19T12:35:21;14.70;;;3.58;;
45296;SDS011;31040;51.622;10.420;2023-11-19T12:37:49;17.50;;;3.38;;
45296;SDS011;31040;51.622;10.420;2023-11-19T12:40:17;12.35;;;3.40;;
45296;SDS011;31040;51.622;10.420;2023-11-19T12:42:46;11.75;;;3.85;;
45296;SDS011;31040;51.622;10.420;2023-11-19T12:45:14;14.15;;;3.72;;
45296;SDS011;31040;51.622;10.420;2023-11-19T12:47:43;10.85;;;3.08;;
45296;SDS011;31040;51.622;10.420;2023-11-19T12:50:11;9.25;;;2.80;;
45296;SDS011;31040;51.622;10.420;2023-11-19T12:52:39;12.18;;;3.35;;
45296;SDS011;31040;51.622;10.420;2023-11-19T12:57:56;12.27;;;2.70;;
45296;SDS011;31040;51.622;10.420;2023-11-19T13:00:25;17.80;;;3.63;;
45296;SDS011;31040;51.622;10.420;2023-11-19T13:02:54;15.75;;;3.55;;
45296;SDS011;31040;51.622;10.420;2023-11-19T13:05:29;11.95;;;2.53;;
45296;SDS011;31040;51.622;10.420;2023-11-19T13:08:05;12.23;;;2.78;;
45296;SDS011;31040;51.622;10.420;2023-11-19T13:10:33;15.07;;;2.97;;
45296;SDS011;31040;51.622;10.420;2023-11-19T13:15:35;9.65;;;3.03;;
45296;SDS011;31040;51.622;10.420;2023-11-19T13:18:02;9.77;;;3.88;;
45296;SDS011;31040;51.622;10.420;2023-11-19T13:20:30;13.50;;;2.80;;
45296;SDS011;31040;51.622;10.420;2023-11-19T13:23:02;8.85;;;2.42;;
45296;SDS011;31040;51.622;10.420;2023-11-19T13:25:29;8.38;;;2.55;;
45296;SDS011;31040;51.622;10.420;2023-11-19T13:27:57;7.68;;;2.78;;
45296;SDS011;31040;51.622;10.420;2023-11-19T13:30:24;11.05;;;3.42;;
45296;SDS011;31040;51.622;10.420;2023-11-19T13:32:53;12.63;;;2.58;;
45296;SDS011;31040;51.622;10.420;2023-11-19T13:35:24;12.63;;;2.80;;
45296;SDS011;31040;51.622;10.420;2023-11-19T13:37:53;10.75;;;2.85;;
45296;SDS011;31040;51.622;10.420;2023-11-19T13:40:21;14.45;;;2.63;;
45296;SDS011;31040;51.622;10.420;2023-11-19T13:42:51;14.60;;;2.92;;
45296;SDS011;31040;51.622;10.420;2023-11-19T13:45:18;13.18;;;2.72;;
45296;SDS011;31040;51.622;10.420;2023-11-19T13:47:47;14.45;;;3.42;;
45296;SDS011;31040;51.622;10.420;2023-11-19T13:50:15;14.13;;;3.97;;
45296;SDS011;31040;51.622;10.420;2023-11-19T13:52:49;8.95;;;3.00;;
45296;SDS011;31040;51.622;10.420;2023-11-19T13:55:16;16.17;;;2.85;;
45296;SDS011;31040;51.622;10.420;2023-11-19T13:57:44;12.45;;;2.90;;
45296;SDS011;31040;51.622;10.420;2023-11-19T14:00:13;9.77;;;3.58;;
45296;SDS011;31040;51.622;10.420;2023-11-19T14:02:43;17.27;;;3.40;;
45296;SDS011;31040;51.622;10.420;2023-11-19T14:05:11;13.40;;;3.20;;
45296;SDS011;31040;51.622;10.420;2023-11-19T14:07:39;13.77;;;3.60;;
45296;SDS011;31040;51.622;10.420;2023-11-19T14:10:06;14.30;;;3.53;;
45296;SDS011;31040;51.622;10.420;2023-11-19T14:12:37;15.82;;;2.90;;
45296;SDS011;31040;51.622;10.420;2023-11-19T14:15:06;12.70;;;3.08;;
45296;SDS011;31040;51.622;10.420;2023-11-19T14:17:34;14.80;;;3.00;;
45296;SDS011;31040;51.622;10.420;2023-11-19T14:20:02;16.73;;;3.15;;
45296;SDS011;31040;51.622;10.420;2023-11-19T14:22:39;16.38;;;3.30;;
45296;SDS011;31040;51.622;10.420;2023-11-19T14:25:08;13.82;;;3.20;;
45296;SDS011;31040;51.622;10.420;2023-11-19T14:27:37;10.00;;;3.50;;
45296;SDS011;31040;51.622;10.420;2023-11-19T14:30:05;13.52;;;3.30;;
45296;SDS011;31040;51.622;10.420;2023-11-19T14:32:32;16.23;;;3.47;;
45296;SDS011;31040;51.622;10.420;2023-11-19T14:35:00;17.98;;;4.22;;
45296;SDS011;31040;51.622;10.420;2023-11-19T14:37:27;14.38;;;3.97;;
45296;SDS011;31040;51.622;10.420;2023-11-19T14:39:55;14.18;;;6.55;;
45296;SDS011;31040;51.622;10.420;2023-11-19T14:42:23;16.55;;;5.40;;
45296;SDS011;31040;51.622;10.420;2023-11-19T14:44:51;11.55;;;3.88;;
45296;SDS011;31040;51.622;10.420;2023-11-19T14:47:19;14.85;;;4.13;;
45296;SDS011;31040;51.622;10.420;2023-11-19T14:49:47;11.30;;;3.58;;
45296;SDS011;31040;51.622;10.420;2023-11-19T14:52:14;16.95;;;6.15;;
45296;SDS011;31040;51.622;10.420;2023-11-19T14:54:43;11.88;;;4.70;;
45296;SDS011;31040;51.622;10.420;2023-11-19T14:57:10;13.88;;;4.45;;
45296;SDS011;31040;51.622;10.420;2023-11-19T14:59:39;15.25;;;3.40;;
45296;SDS011;31040;51.622;10.420;2023-11-19T15:02:07;8.60;;;3.85;;
45296;SDS011;31040;51.622;10.420;2023-11-19T15:04:34;13.27;;;3.65;;
45296;SDS011;31040;51.622;10.420;2023-11-19T15:07:02;19.88;;;4.40;;
45296;SDS011;31040;51.622;10.420;2023-11-19T15:09:30;12.13;;;3.78;;